sensor_id;sensor_type;location;lat;lon;timestamp;P1;durP1;ratioP1;P2;durP2;ratioP2
48014;SDS011;33780;51.034;7.120;2023-05-10T00:01:15;3.72;;;2.00;;
48014;SDS011;33780;51.034;7.120;2023-05-10T00:03:40;5.63;;;2.25;;
48014;SDS011;33780;51.034;7.120;2023-05-10T00:06:05;4.40;;;2.47;;
48014;SDS011;33780;51.034;7.120;2023-05-10T00:08:31;4.07;;;2.28;;
48014;SDS011;33780;51.034;7.120;2023-05-10T00:10:56;5.05;;;2.63;;
48014;SDS011;33780;51.034;7.120;2023-05-10T00:13:21;5.88;;;2.33;;
48014;SDS011;33780;51.034;7.120;2023-05-10T00:15:47;3.72;;;2.20;;
48014;SDS011;33780;51.034;7.120;2023-05-10T00:18:12;5.38;;;2.47;;
48014;SDS011;33780;51.034;7.120;2023-05-10T00:20:37;5.35;;;2.50;;
48014;SDS011;33780;51.034;7.120;2023-05-10T00:23:03;5.63;;;2.63;;
48014;SDS011;33780;51.034;7.120;2023-05-10T00:25:28;7.43;;;2.45;;
48014;SDS011;33780;51.034;7.120;2023-05-10T00:27:53;5.40;;;2.72;;
48014;SDS011;33780;51.034;7.120;2023-05-10T00:30:20;5.28;;;2.80;;
48014;SDS011;33780;51.034;7.120;2023-05-10T00:32:45;4.88;;;2.65;;
48014;SDS011;33780;51.034;7.120;2023-05-10T00:35:13;5.45;;;3.00;;
48014;SDS011;33780;51.034;7.120;2023-05-10T00:37:38;6.32;;;2.65;;
48014;SDS011;33780;51.034;7.120;2023-05-10T00:40:03;5.50;;;2.90;;
48014;SDS011;33780;51.034;7.120;2023-05-10T00:42:29;6.97;;;3.03;;
48014;SDS011;33780;51.034;7.120;2023-05-10T00:44:55;5.93;;;2.78;;
48014;SDS011;33780;51.034;7.120;2023-05-10T00:47:21;5.53;;;2.75;;
48014;SDS011;33780;51.034;7.120;2023-05-10T00:49:47;5.15;;;2.50;;
48014;SDS011;33780;51.034;7.120;2023-05-10T00:52:12;5.70;;;3.03;;
48014;SDS011;33780;51.034;7.120;2023-05-10T00:54:38;6.05;;;2.75;;
48014;SDS011;33780;51.034;7.120;2023-05-10T00:57:03;6.60;;;3.30;;
48014;SDS011;33780;51.034;7.120;2023-05-10T00:59:29;5.68;;;2.58;;
48014;SDS011;33780;51.034;7.120;2023-05-10T01:01:54;6.78;;;3.03;;
48014;SDS011;33780;51.034;7.120;2023-05-10T01:04:20;6.00;;;2.75;;
48014;SDS011;33780;51.034;7.120;2023-05-10T01:06:50;5.53;;;2.90;;
48014;SDS011;33780;51.034;7.120;2023-05-10T01:09:16;5.88;;;2.80;;
48014;SDS011;33780;51.034;7.120;2023-05-10T01:11:42;4.50;;;2.40;;
48014;SDS011;33780;51.034;7.120;2023-05-10T01:14:07;6.10;;;2.58;;
48014;SDS011;33780;51.034;7.120;2023-05-10T01:16:35;4.45;;;2.40;;
48014;SDS011;33780;51.034;7.120;2023-05-10T01:21:48;5.10;;;2.50;;
48014;SDS011;33780;51.034;7.120;2023-05-10T01:24:25;4.22;;;2.35;;
48014;SDS011;33780;51.034;7.120;2023-05-10T01:29:49;5.20;;;2.45;;
48014;SDS011;33780;51.034;7.120;2023-05-10T01:32:35;5.32;;;2.45;;
48014;SDS011;33780;51.034;7.120;2023-05-10T01:35:19;4.95;;;2.45;;
48014;SDS011;33780;51.034;7.120;2023-05-10T01:40:48;5.40;;;2.65;;
48014;SDS011;33780;51.034;7.120;2023-05-10T01:43:37;6.05;;;2.80;;
48014;SDS011;33780;51.034;7.120;2023-05-10T01:46:14;5.18;;;2.80;;
48014;SDS011;33780;51.034;7.120;2023-05-10T01:48:47;5.72;;;2.85;;
48014;SDS011;33780;51.034;7.120;2023-05-10T01:51:16;5.32;;;2.55;;
48014;SDS011;33780;51.034;7.120;2023-05-10T01:53:46;4.90;;;2.72;;
48014;SDS011;33780;51.034;7.120;2023-05-10T01:56:13;5.72;;;2.80;;
48014;SDS011;33780;51.034;7.120;2023-05-10T01:58:40;5.45;;;2.83;;
48014;SDS011;33780;51.034;7.120;2023-05-10T02:01:10;6.35;;;2.88;;
48014;SDS011;33780;51.034;7.120;2023-05-10T02:03:37;4.65;;;2.60;;
48014;SDS011;33780;51.034;7.120;2023-05-10T02:06:04;5.80;;;2.90;;
48014;SDS011;33780;51.034;7.120;2023-05-10T02:08:32;5.78;;;2.60;;
48014;SDS011;33780;51.034;7.120;2023-05-10T02:11:00;6.22;;;2.95;;
48014;SDS011;33780;51.034;7.120;2023-05-10T02:13:27;5.00;;;2.50;;
48014;SDS011;33780;51.034;7.120;2023-05-10T02:15:54;5.38;;;2.72;;
48014;SDS011;33780;51.034;7.120;2023-05-10T02:18:22;5.45;;;2.70;;
48014;SDS011;33780;51.034;7.120;2023-05-10T02:20:50;4.40;;;2.10;;
48014;SDS011;33780;51.034;7.120;2023-05-10T02:23:18;4.93;;;2.33;;
48014;SDS011;33780;51.034;7.120;2023-05-10T02:25:45;3.95;;;1.85;;
48014;SDS011;33780;51.034;7.120;2023-05-10T02:28:12;3.95;;;1.88;;
48014;SDS011;33780;51.034;7.120;2023-05-10T02:30:39;4.40;;;2.10;;
48014;SDS011;33780;51.034;7.120;2023-05-10T02:33:05;4.05;;;2.05;;
48014;SDS011;33780;51.034;7.120;2023-05-10T02:35:31;4.70;;;2.20;;
48014;SDS011;33780;51.034;7.120;2023-05-10T02:37:58;4.90;;;1.60;;
48014;SDS011;33780;51.034;7.120;2023-05-10T02:40:24;3.65;;;1.95;;
48014;SDS011;33780;51.034;7.120;2023-05-10T02:42:52;2.47;;;1.38;;
48014;SDS011;33780;51.034;7.120;2023-05-10T02:45:20;3.88;;;1.73;;
48014;SDS011;33780;51.034;7.120;2023-05-10T02:47:48;2.45;;;1.30;;
48014;SDS011;33780;51.034;7.120;2023-05-10T02:50:13;4.53;;;2.00;;
48014;SDS011;33780;51.034;7.120;2023-05-10T02:52:40;3.75;;;1.75;;
48014;SDS011;33780;51.034;7.120;2023-05-10T02:55:09;2.92;;;1.30;;
48014;SDS011;33780;51.034;7.120;2023-05-10T02:57:40;3.75;;;1.65;;
48014;SDS011;33780;51.034;7.120;2023-05-10T03:02:36;2.75;;;1.50;;
48014;SDS011;33780;51.034;7.120;2023-05-10T03:05:02;3.55;;;1.70;;
48014;SDS011;33780;51.034;7.120;2023-05-10T03:07:27;3.10;;;1.52;;
48014;SDS011;33780;51.034;7.120;2023-05-10T03:09:53;4.55;;;1.90;;
48014;SDS011;33780;51.034;7.120;2023-05-10T03:20:35;3.60;;;1.75;;
48014;SDS011;33780;51.034;7.120;2023-05-10T03:23:13;3.22;;;1.70;;
48014;SDS011;33780;51.034;7.120;2023-05-10T03:25:46;3.28;;;1.63;;
48014;SDS011;33780;51.034;7.120;2023-05-10T03:28:13;3.88;;;1.85;;
48014;SDS011;33780;51.034;7.120;2023-05-10T03:30:40;4.93;;;2.13;;
48014;SDS011;33780;51.034;7.120;2023-05-10T03:33:07;6.18;;;2.58;;
48014;SDS011;33780;51.034;7.120;2023-05-10T03:35:33;3.85;;;2.10;;
48014;SDS011;33780;51.034;7.120;2023-05-10T03:37:58;5.18;;;2.38;;
48014;SDS011;33780;51.034;7.120;2023-05-10T03:40:24;5.40;;;2.78;;
48014;SDS011;33780;51.034;7.120;2023-05-10T03:42:51;5.00;;;2.72;;
48014;SDS011;33780;51.034;7.120;2023-05-10T03:45:16;6.68;;;3.03;;
48014;SDS011;33780;51.034;7.120;2023-05-10T03:47:41;7.20;;;2.65;;
48014;SDS011;33780;51.034;7.120;2023-05-10T03:50:07;5.10;;;2.60;;
48014;SDS011;33780;51.034;7.120;2023-05-10T03:52:32;5.88;;;2.65;;
48014;SDS011;33780;51.034;7.120;2023-05-10T03:54:58;7.07;;;2.95;;
48014;SDS011;33780;51.034;7.120;2023-05-10T03:57:23;5.03;;;2.42;;
48014;SDS011;33780;51.034;7.120;2023-05-10T03:59:48;5.55;;;2.80;;
48014;SDS011;33780;51.034;7.120;2023-05-10T04:02:14;4.68;;;2.75;;
48014;SDS011;33780;51.034;7.120;2023-05-10T04:04:39;6.18;;;2.90;;
48014;SDS011;33780;51.034;7.120;2023-05-10T04:07:04;6.55;;;2.90;;
48014;SDS011;33780;51.034;7.120;2023-05-10T04:09:30;5.50;;;2.63;;
48014;SDS011;33780;51.034;7.120;2023-05-10T04:11:55;5.38;;;3.00;;
48014;SDS011;33780;51.034;7.120;2023-05-10T04:14:21;7.10;;;2.80;;
48014;SDS011;33780;51.034;7.120;2023-05-10T04:16:46;6.25;;;3.03;;
48014;SDS011;33780;51.034;7.120;2023-05-10T04:19:11;7.60;;;2.65;;
48014;SDS011;33780;51.034;7.120;2023-05-10T04:21:37;5.50;;;3.13;;
48014;SDS011;33780;51.034;7.120;2023-05-10T04:24:02;5.05;;;2.65;;
48014;SDS011;33780;51.034;7.120;2023-05-10T04:26:27;6.13;;;3.30;;
48014;SDS011;33780;51.034;7.120;2023-05-10T04:28:52;7.72;;;3.70;;
48014;SDS011;33780;51.034;7.120;2023-05-10T04:31:18;7.22;;;3.40;;
48014;SDS011;33780;51.034;7.120;2023-05-10T04:33:43;6.43;;;3.33;;
48014;SDS011;33780;51.034;7.120;2023-05-10T04:36:08;6.78;;;2.90;;
48014;SDS011;33780;51.034;7.120;2023-05-10T04:38:34;7.15;;;3.22;;
48014;SDS011;33780;51.034;7.120;2023-05-10T04:41:09;6.82;;;3.22;;
48014;SDS011;33780;51.034;7.120;2023-05-10T04:43:35;6.60;;;3.05;;
48014;SDS011;33780;51.034;7.120;2023-05-10T04:46:01;7.10;;;3.35;;
48014;SDS011;33780;51.034;7.120;2023-05-10T04:48:27;7.63;;;3.00;;
48014;SDS011;33780;51.034;7.120;2023-05-10T04:50:52;6.85;;;3.13;;
48014;SDS011;33780;51.034;7.120;2023-05-10T04:53:18;7.32;;;2.88;;
48014;SDS011;33780;51.034;7.120;2023-05-10T04:55:43;6.05;;;3.00;;
48014;SDS011;33780;51.034;7.120;2023-05-10T04:58:08;6.03;;;2.92;;
48014;SDS011;33780;51.034;7.120;2023-05-10T05:00:33;7.47;;;3.50;;
48014;SDS011;33780;51.034;7.120;2023-05-10T05:02:59;7.40;;;3.20;;
48014;SDS011;33780;51.034;7.120;2023-05-10T05:05:24;7.10;;;2.95;;
48014;SDS011;33780;51.034;7.120;2023-05-10T05:07:50;6.63;;;3.25;;
48014;SDS011;33780;51.034;7.120;2023-05-10T05:10:15;6.35;;;3.35;;
48014;SDS011;33780;51.034;7.120;2023-05-10T05:12:41;7.78;;;3.50;;
48014;SDS011;33780;51.034;7.120;2023-05-10T05:15:06;6.28;;;3.70;;
48014;SDS011;33780;51.034;7.120;2023-05-10T05:17:34;7.85;;;3.85;;
48014;SDS011;33780;51.034;7.120;2023-05-10T05:19:59;7.00;;;3.47;;
48014;SDS011;33780;51.034;7.120;2023-05-10T05:22:24;7.45;;;3.70;;
48014;SDS011;33780;51.034;7.120;2023-05-10T05:24:53;7.68;;;3.78;;
48014;SDS011;33780;51.034;7.120;2023-05-10T05:27:19;10.77;;;4.20;;
48014;SDS011;33780;51.034;7.120;2023-05-10T05:29:47;8.10;;;4.03;;
48014;SDS011;33780;51.034;7.120;2023-05-10T05:32:12;9.02;;;4.03;;
48014;SDS011;33780;51.034;7.120;2023-05-10T05:34:37;9.63;;;4.15;;
48014;SDS011;33780;51.034;7.120;2023-05-10T05:37:03;7.55;;;4.03;;
48014;SDS011;33780;51.034;7.120;2023-05-10T05:39:28;8.57;;;4.60;;
48014;SDS011;33780;51.034;7.120;2023-05-10T05:41:53;8.43;;;4.30;;
48014;SDS011;33780;51.034;7.120;2023-05-10T05:44:19;9.73;;;4.63;;
48014;SDS011;33780;51.034;7.120;2023-05-10T05:46:44;11.30;;;4.65;;
48014;SDS011;33780;51.034;7.120;2023-05-10T05:49:10;9.68;;;4.90;;
48014;SDS011;33780;51.034;7.120;2023-05-10T05:51:35;10.68;;;5.15;;
48014;SDS011;33780;51.034;7.120;2023-05-10T05:54:00;13.27;;;5.65;;
48014;SDS011;33780;51.034;7.120;2023-05-10T05:56:26;11.80;;;4.97;;
48014;SDS011;33780;51.034;7.120;2023-05-10T05:58:51;11.52;;;5.05;;
48014;SDS011;33780;51.034;7.120;2023-05-10T06:01:17;10.63;;;4.80;;
48014;SDS011;33780;51.034;7.120;2023-05-10T06:03:42;11.48;;;5.15;;
48014;SDS011;33780;51.034;7.120;2023-05-10T06:06:08;9.32;;;4.70;;
48014;SDS011;33780;51.034;7.120;2023-05-10T06:08:33;14.65;;;5.18;;
48014;SDS011;33780;51.034;7.120;2023-05-10T06:10:59;8.70;;;3.92;;
48014;SDS011;33780;51.034;7.120;2023-05-10T06:13:24;8.80;;;3.90;;
48014;SDS011;33780;51.034;7.120;2023-05-10T06:15:53;7.50;;;3.78;;
48014;SDS011;33780;51.034;7.120;2023-05-10T06:18:18;7.80;;;3.63;;
48014;SDS011;33780;51.034;7.120;2023-05-10T06:20:44;6.85;;;3.40;;
48014;SDS011;33780;51.034;7.120;2023-05-10T06:23:09;8.55;;;3.75;;
48014;SDS011;33780;51.034;7.120;2023-05-10T06:25:34;7.95;;;3.75;;
48014;SDS011;33780;51.034;7.120;2023-05-10T06:28:00;7.25;;;3.22;;
48014;SDS011;33780;51.034;7.120;2023-05-10T06:30:25;8.95;;;3.75;;
48014;SDS011;33780;51.034;7.120;2023-05-10T06:32:53;9.07;;;3.55;;
48014;SDS011;33780;51.034;7.120;2023-05-10T06:35:19;7.15;;;3.55;;
48014;SDS011;33780;51.034;7.120;2023-05-10T06:37:44;7.97;;;3.63;;
48014;SDS011;33780;51.034;7.120;2023-05-10T06:40:10;12.20;;;4.30;;
48014;SDS011;33780;51.034;7.120;2023-05-10T06:42:36;7.72;;;3.70;;
48014;SDS011;33780;51.034;7.120;2023-05-10T06:45:02;10.20;;;3.65;;
48014;SDS011;33780;51.034;7.120;2023-05-10T06:47:28;9.45;;;3.78;;
48014;SDS011;33780;51.034;7.120;2023-05-10T06:49:53;7.60;;;3.92;;
48014;SDS011;33780;51.034;7.120;2023-05-10T06:52:19;10.18;;;3.97;;
48014;SDS011;33780;51.034;7.120;2023-05-10T06:54:44;8.77;;;4.60;;
48014;SDS011;33780;51.034;7.120;2023-05-10T06:57:10;8.20;;;4.15;;
48014;SDS011;33780;51.034;7.120;2023-05-10T06:59:35;10.90;;;4.15;;
48014;SDS011;33780;51.034;7.120;2023-05-10T07:02:01;11.35;;;4.65;;
48014;SDS011;33780;51.034;7.120;2023-05-10T07:04:27;11.27;;;4.70;;
48014;SDS011;33780;51.034;7.120;2023-05-10T07:06:52;10.27;;;4.95;;
48014;SDS011;33780;51.034;7.120;2023-05-10T07:09:18;10.75;;;4.82;;
48014;SDS011;33780;51.034;7.120;2023-05-10T07:11:43;11.38;;;4.60;;
48014;SDS011;33780;51.034;7.120;2023-05-10T07:14:08;9.88;;;4.57;;
48014;SDS011;33780;51.034;7.120;2023-05-10T07:16:33;11.13;;;5.07;;
48014;SDS011;33780;51.034;7.120;2023-05-10T07:18:59;11.73;;;4.60;;
48014;SDS011;33780;51.034;7.120;2023-05-10T07:21:24;10.45;;;4.85;;
48014;SDS011;33780;51.034;7.120;2023-05-10T07:23:49;10.00;;;4.63;;
48014;SDS011;33780;51.034;7.120;2023-05-10T07:26:15;11.25;;;4.60;;
48014;SDS011;33780;51.034;7.120;2023-05-10T07:28:40;9.70;;;4.65;;
48014;SDS011;33780;51.034;7.120;2023-05-10T07:31:06;9.65;;;4.53;;
48014;SDS011;33780;51.034;7.120;2023-05-10T07:33:31;10.65;;;4.60;;
48014;SDS011;33780;51.034;7.120;2023-05-10T07:35:57;10.98;;;4.43;;
48014;SDS011;33780;51.034;7.120;2023-05-10T07:38:22;8.63;;;3.97;;
48014;SDS011;33780;51.034;7.120;2023-05-10T07:40:48;9.00;;;4.07;;
48014;SDS011;33780;51.034;7.120;2023-05-10T07:43:13;11.13;;;4.68;;
48014;SDS011;33780;51.034;7.120;2023-05-10T07:45:38;10.88;;;4.50;;
48014;SDS011;33780;51.034;7.120;2023-05-10T07:48:03;9.55;;;4.22;;
48014;SDS011;33780;51.034;7.120;2023-05-10T07:50:29;9.60;;;4.40;;
48014;SDS011;33780;51.034;7.120;2023-05-10T07:52:54;10.55;;;4.40;;
48014;SDS011;33780;51.034;7.120;2023-05-10T07:55:19;7.22;;;3.92;;
48014;SDS011;33780;51.034;7.120;2023-05-10T07:57:46;8.13;;;3.75;;
48014;SDS011;33780;51.034;7.120;2023-05-10T08:00:14;9.40;;;4.15;;
48014;SDS011;33780;51.034;7.120;2023-05-10T08:02:42;8.48;;;3.63;;
48014;SDS011;33780;51.034;7.120;2023-05-10T08:05:08;8.80;;;4.10;;
48014;SDS011;33780;51.034;7.120;2023-05-10T08:07:33;7.72;;;3.95;;
48014;SDS011;33780;51.034;7.120;2023-05-10T08:09:58;7.03;;;3.58;;
48014;SDS011;33780;51.034;7.120;2023-05-10T08:12:24;8.40;;;3.85;;
48014;SDS011;33780;51.034;7.120;2023-05-10T08:14:49;6.88;;;3.50;;
48014;SDS011;33780;51.034;7.120;2023-05-10T08:17:14;7.75;;;3.90;;
48014;SDS011;33780;51.034;7.120;2023-05-10T08:19:39;7.75;;;3.65;;
48014;SDS011;33780;51.034;7.120;2023-05-10T08:22:05;6.53;;;3.50;;
48014;SDS011;33780;51.034;7.120;2023-05-10T08:24:30;6.20;;;3.30;;
48014;SDS011;33780;51.034;7.120;2023-05-10T08:26:55;7.85;;;3.53;;
48014;SDS011;33780;51.034;7.120;2023-05-10T08:29:21;7.55;;;3.40;;
48014;SDS011;33780;51.034;7.120;2023-05-10T08:31:46;8.52;;;3.63;;
48014;SDS011;33780;51.034;7.120;2023-05-10T08:34:11;7.32;;;3.38;;
48014;SDS011;33780;51.034;7.120;2023-05-10T08:36:36;6.57;;;3.03;;
48014;SDS011;33780;51.034;7.120;2023-05-10T08:39:02;7.63;;;3.40;;
48014;SDS011;33780;51.034;7.120;2023-05-10T08:41:27;8.10;;;3.72;;
48014;SDS011;33780;51.034;7.120;2023-05-10T08:43:54;7.75;;;2.97;;
48014;SDS011;33780;51.034;7.120;2023-05-10T08:46:20;8.30;;;3.50;;
48014;SDS011;33780;51.034;7.120;2023-05-10T08:48:48;6.78;;;3.47;;
48014;SDS011;33780;51.034;7.120;2023-05-10T08:51:17;7.75;;;3.30;;
48014;SDS011;33780;51.034;7.120;2023-05-10T08:53:45;8.40;;;3.83;;
48014;SDS011;33780;51.034;7.120;2023-05-10T08:56:10;7.07;;;3.22;;
48014;SDS011;33780;51.034;7.120;2023-05-10T08:58:36;6.75;;;3.35;;
48014;SDS011;33780;51.034;7.120;2023-05-10T09:01:02;7.72;;;3.88;;
48014;SDS011;33780;51.034;7.120;2023-05-10T09:03:29;8.80;;;3.67;;
48014;SDS011;33780;51.034;7.120;2023-05-10T09:05:55;7.43;;;3.20;;
48014;SDS011;33780;51.034;7.120;2023-05-10T09:08:23;6.95;;;3.20;;
48014;SDS011;33780;51.034;7.120;2023-05-10T09:10:52;6.13;;;3.20;;
48014;SDS011;33780;51.034;7.120;2023-05-10T09:13:18;6.50;;;3.17;;
48014;SDS011;33780;51.034;7.120;2023-05-10T09:15:44;7.85;;;3.47;;
48014;SDS011;33780;51.034;7.120;2023-05-10T09:18:11;7.68;;;3.58;;
48014;SDS011;33780;51.034;7.120;2023-05-10T09:20:36;7.72;;;3.72;;
48014;SDS011;33780;51.034;7.120;2023-05-10T09:23:01;7.43;;;3.42;;
48014;SDS011;33780;51.034;7.120;2023-05-10T09:25:27;8.60;;;3.63;;
48014;SDS011;33780;51.034;7.120;2023-05-10T09:27:52;8.65;;;4.00;;
48014;SDS011;33780;51.034;7.120;2023-05-10T09:30:28;7.45;;;3.63;;
48014;SDS011;33780;51.034;7.120;2023-05-10T09:32:55;7.97;;;3.72;;
48014;SDS011;33780;51.034;7.120;2023-05-10T09:35:22;8.15;;;3.67;;
48014;SDS011;33780;51.034;7.120;2023-05-10T09:37:50;10.02;;;4.22;;
48014;SDS011;33780;51.034;7.120;2023-05-10T09:40:17;9.88;;;3.72;;
48014;SDS011;33780;51.034;7.120;2023-05-10T09:45:36;9.02;;;3.53;;
48014;SDS011;33780;51.034;7.120;2023-05-10T09:48:01;12.20;;;4.50;;
48014;SDS011;33780;51.034;7.120;2023-05-10T09:50:28;9.70;;;4.30;;
48014;SDS011;33780;51.034;7.120;2023-05-10T09:52:58;9.38;;;4.20;;
48014;SDS011;33780;51.034;7.120;2023-05-10T09:55:41;12.15;;;4.30;;
48014;SDS011;33780;51.034;7.120;2023-05-10T09:58:09;10.10;;;4.03;;
48014;SDS011;33780;51.034;7.120;2023-05-10T10:00:35;12.13;;;5.05;;
48014;SDS011;33780;51.034;7.120;2023-05-10T10:03:02;13.75;;;4.97;;
48014;SDS011;33780;51.034;7.120;2023-05-10T10:05:29;13.32;;;4.72;;
48014;SDS011;33780;51.034;7.120;2023-05-10T10:07:56;10.85;;;3.90;;
48014;SDS011;33780;51.034;7.120;2023-05-10T10:10:22;12.45;;;4.63;;
48014;SDS011;33780;51.034;7.120;2023-05-10T10:12:49;9.02;;;4.15;;
48014;SDS011;33780;51.034;7.120;2023-05-10T10:15:14;8.75;;;4.43;;
48014;SDS011;33780;51.034;7.120;2023-05-10T10:17:40;11.75;;;5.30;;
48014;SDS011;33780;51.034;7.120;2023-05-10T10:20:08;13.55;;;4.75;;
48014;SDS011;33780;51.034;7.120;2023-05-10T10:22:33;11.95;;;4.90;;
48014;SDS011;33780;51.034;7.120;2023-05-10T10:24:59;10.38;;;4.53;;
48014;SDS011;33780;51.034;7.120;2023-05-10T10:27:27;9.90;;;4.55;;
48014;SDS011;33780;51.034;7.120;2023-05-10T10:30:01;9.85;;;4.50;;
48014;SDS011;33780;51.034;7.120;2023-05-10T10:35:38;13.30;;;5.23;;
48014;SDS011;33780;51.034;7.120;2023-05-10T10:38:04;14.95;;;5.68;;
48014;SDS011;33780;51.034;7.120;2023-05-10T10:40:33;13.48;;;5.72;;
48014;SDS011;33780;51.034;7.120;2023-05-10T10:43:20;12.75;;;5.20;;
48014;SDS011;33780;51.034;7.120;2023-05-10T10:46:09;15.85;;;6.00;;
48014;SDS011;33780;51.034;7.120;2023-05-10T10:48:36;10.88;;;5.45;;
48014;SDS011;33780;51.034;7.120;2023-05-10T10:51:01;13.55;;;5.57;;
48014;SDS011;33780;51.034;7.120;2023-05-10T10:53:27;14.15;;;6.10;;
48014;SDS011;33780;51.034;7.120;2023-05-10T10:56:02;12.45;;;5.32;;
48014;SDS011;33780;51.034;7.120;2023-05-10T10:58:31;14.38;;;5.15;;
48014;SDS011;33780;51.034;7.120;2023-05-10T11:01:16;12.02;;;4.97;;
48014;SDS011;33780;51.034;7.120;2023-05-10T11:08:56;11.48;;;5.00;;
48014;SDS011;33780;51.034;7.120;2023-05-10T11:11:22;10.98;;;4.90;;
48014;SDS011;33780;51.034;7.120;2023-05-10T11:13:47;11.25;;;4.90;;
48014;SDS011;33780;51.034;7.120;2023-05-10T11:16:14;10.13;;;4.75;;
48014;SDS011;33780;51.034;7.120;2023-05-10T11:18:51;15.32;;;5.07;;
48014;SDS011;33780;51.034;7.120;2023-05-10T11:21:26;10.65;;;5.20;;
48014;SDS011;33780;51.034;7.120;2023-05-10T11:23:53;11.45;;;4.97;;
48014;SDS011;33780;51.034;7.120;2023-05-10T11:26:23;11.35;;;4.97;;
48014;SDS011;33780;51.034;7.120;2023-05-10T11:28:51;13.35;;;5.30;;
48014;SDS011;33780;51.034;7.120;2023-05-10T11:31:19;12.25;;;5.00;;
48014;SDS011;33780;51.034;7.120;2023-05-10T11:33:45;12.90;;;5.30;;
48014;SDS011;33780;51.034;7.120;2023-05-10T11:36:21;11.93;;;5.25;;
48014;SDS011;33780;51.034;7.120;2023-05-10T11:38:48;13.20;;;5.93;;
48014;SDS011;33780;51.034;7.120;2023-05-10T11:41:14;12.88;;;5.60;;
48014;SDS011;33780;51.034;7.120;2023-05-10T11:43:41;12.27;;;5.57;;
48014;SDS011;33780;51.034;7.120;2023-05-10T11:46:07;12.90;;;5.13;;
48014;SDS011;33780;51.034;7.120;2023-05-10T11:48:35;13.57;;;5.13;;
48014;SDS011;33780;51.034;7.120;2023-05-10T11:51:01;10.75;;;5.45;;
48014;SDS011;33780;51.034;7.120;2023-05-10T11:53:27;10.90;;;5.25;;
48014;SDS011;33780;51.034;7.120;2023-05-10T11:56:02;11.48;;;5.68;;
48014;SDS011;33780;51.034;7.120;2023-05-10T11:58:31;11.10;;;4.80;;
48014;SDS011;33780;51.034;7.120;2023-05-10T12:00:58;10.60;;;4.82;;
48014;SDS011;33780;51.034;7.120;2023-05-10T12:03:24;10.18;;;4.95;;
48014;SDS011;33780;51.034;7.120;2023-05-10T12:05:49;9.95;;;4.70;;
48014;SDS011;33780;51.034;7.120;2023-05-10T12:08:15;7.95;;;3.97;;
48014;SDS011;33780;51.034;7.120;2023-05-10T12:10:44;9.02;;;3.78;;
48014;SDS011;33780;51.034;7.120;2023-05-10T12:13:16;8.52;;;3.40;;
48014;SDS011;33780;51.034;7.120;2023-05-10T12:15:42;7.63;;;3.53;;
48014;SDS011;33780;51.034;7.120;2023-05-10T12:18:11;6.10;;;3.55;;
48014;SDS011;33780;51.034;7.120;2023-05-10T12:20:37;6.78;;;3.10;;
48014;SDS011;33780;51.034;7.120;2023-05-10T12:23:03;6.95;;;2.97;;
48014;SDS011;33780;51.034;7.120;2023-05-10T12:25:31;4.75;;;2.53;;
48014;SDS011;33780;51.034;7.120;2023-05-10T12:27:58;5.35;;;2.65;;
48014;SDS011;33780;51.034;7.120;2023-05-10T12:30:28;5.57;;;2.60;;
48014;SDS011;33780;51.034;7.120;2023-05-10T12:33:02;6.07;;;2.53;;
48014;SDS011;33780;51.034;7.120;2023-05-10T12:35:45;6.65;;;2.90;;
48014;SDS011;33780;51.034;7.120;2023-05-10T12:40:50;6.40;;;2.63;;
48014;SDS011;33780;51.034;7.120;2023-05-10T12:43:15;5.68;;;2.60;;
48014;SDS011;33780;51.034;7.120;2023-05-10T12:45:41;4.70;;;2.40;;
48014;SDS011;33780;51.034;7.120;2023-05-10T12:48:06;4.85;;;2.05;;
48014;SDS011;33780;51.034;7.120;2023-05-10T12:50:31;4.88;;;2.10;;
48014;SDS011;33780;51.034;7.120;2023-05-10T12:52:56;5.88;;;1.73;;
48014;SDS011;33780;51.034;7.120;2023-05-10T12:55:22;3.97;;;1.80;;
48014;SDS011;33780;51.034;7.120;2023-05-10T12:57:47;2.92;;;1.40;;
48014;SDS011;33780;51.034;7.120;2023-05-10T13:00:12;3.65;;;1.65;;
48014;SDS011;33780;51.034;7.120;2023-05-10T13:02:38;3.65;;;1.60;;
48014;SDS011;33780;51.034;7.120;2023-05-10T13:05:04;3.83;;;1.85;;
48014;SDS011;33780;51.034;7.120;2023-05-10T13:07:30;3.45;;;1.75;;
48014;SDS011;33780;51.034;7.120;2023-05-10T13:09:55;3.35;;;1.45;;
48014;SDS011;33780;51.034;7.120;2023-05-10T13:12:21;2.78;;;1.30;;
48014;SDS011;33780;51.034;7.120;2023-05-10T13:14:46;2.85;;;1.30;;
48014;SDS011;33780;51.034;7.120;2023-05-10T13:17:11;2.40;;;1.30;;
48014;SDS011;33780;51.034;7.120;2023-05-10T13:19:36;4.20;;;1.40;;
48014;SDS011;33780;51.034;7.120;2023-05-10T13:22:02;2.95;;;1.50;;
48014;SDS011;33780;51.034;7.120;2023-05-10T13:24:27;2.25;;;1.25;;
48014;SDS011;33780;51.034;7.120;2023-05-10T13:26:53;2.17;;;1.10;;
48014;SDS011;33780;51.034;7.120;2023-05-10T13:29:18;2.50;;;1.10;;
48014;SDS011;33780;51.034;7.120;2023-05-10T13:31:44;3.28;;;1.35;;
48014;SDS011;33780;51.034;7.120;2023-05-10T13:34:09;4.80;;;1.35;;
48014;SDS011;33780;51.034;7.120;2023-05-10T13:36:34;2.72;;;1.20;;
48014;SDS011;33780;51.034;7.120;2023-05-10T13:39:00;2.90;;;1.20;;
48014;SDS011;33780;51.034;7.120;2023-05-10T13:41:27;3.17;;;1.13;;
48014;SDS011;33780;51.034;7.120;2023-05-10T13:43:52;2.55;;;1.35;;
48014;SDS011;33780;51.034;7.120;2023-05-10T13:46:18;2.75;;;1.40;;
48014;SDS011;33780;51.034;7.120;2023-05-10T13:48:43;2.55;;;1.30;;
48014;SDS011;33780;51.034;7.120;2023-05-10T13:51:09;3.38;;;1.60;;
48014;SDS011;33780;51.034;7.120;2023-05-10T13:53:34;3.22;;;1.40;;
48014;SDS011;33780;51.034;7.120;2023-05-10T13:55:59;4.93;;;2.40;;
48014;SDS011;33780;51.034;7.120;2023-05-10T13:58:24;5.80;;;2.88;;
48014;SDS011;33780;51.034;7.120;2023-05-10T14:00:50;5.80;;;2.45;;
48014;SDS011;33780;51.034;7.120;2023-05-10T14:03:15;5.90;;;2.80;;
48014;SDS011;33780;51.034;7.120;2023-05-10T14:05:40;5.00;;;2.30;;
48014;SDS011;33780;51.034;7.120;2023-05-10T14:08:05;6.28;;;2.72;;
48014;SDS011;33780;51.034;7.120;2023-05-10T14:10:31;5.75;;;2.95;;
48014;SDS011;33780;51.034;7.120;2023-05-10T14:12:56;5.13;;;2.50;;
48014;SDS011;33780;51.034;7.120;2023-05-10T14:15:21;6.22;;;2.75;;
48014;SDS011;33780;51.034;7.120;2023-05-10T14:17:47;6.45;;;2.97;;
48014;SDS011;33780;51.034;7.120;2023-05-10T14:20:12;6.60;;;3.25;;
48014;SDS011;33780;51.034;7.120;2023-05-10T14:22:38;6.43;;;3.10;;
48014;SDS011;33780;51.034;7.120;2023-05-10T14:25:03;8.43;;;3.20;;
48014;SDS011;33780;51.034;7.120;2023-05-10T14:27:28;8.00;;;2.95;;
48014;SDS011;33780;51.034;7.120;2023-05-10T14:29:55;7.57;;;3.20;;
48014;SDS011;33780;51.034;7.120;2023-05-10T14:32:20;6.40;;;3.33;;
48014;SDS011;33780;51.034;7.120;2023-05-10T14:34:45;7.55;;;3.20;;
48014;SDS011;33780;51.034;7.120;2023-05-10T14:37:11;6.20;;;2.97;;
48014;SDS011;33780;51.034;7.120;2023-05-10T14:39:36;6.43;;;2.65;;
48014;SDS011;33780;51.034;7.120;2023-05-10T14:42:02;5.10;;;2.55;;
48014;SDS011;33780;51.034;7.120;2023-05-10T14:44:28;4.80;;;2.42;;
48014;SDS011;33780;51.034;7.120;2023-05-10T14:46:53;6.18;;;2.78;;
48014;SDS011;33780;51.034;7.120;2023-05-10T14:49:18;7.80;;;3.30;;
48014;SDS011;33780;51.034;7.120;2023-05-10T14:51:44;6.82;;;3.08;;
48014;SDS011;33780;51.034;7.120;2023-05-10T14:54:10;5.57;;;2.88;;
48014;SDS011;33780;51.034;7.120;2023-05-10T14:56:35;6.95;;;2.95;;
48014;SDS011;33780;51.034;7.120;2023-05-10T14:59:02;5.43;;;2.78;;
48014;SDS011;33780;51.034;7.120;2023-05-10T15:01:28;7.10;;;3.45;;
48014;SDS011;33780;51.034;7.120;2023-05-10T15:03:54;6.10;;;3.05;;
48014;SDS011;33780;51.034;7.120;2023-05-10T15:06:22;6.60;;;3.28;;
48014;SDS011;33780;51.034;7.120;2023-05-10T15:08:49;7.20;;;3.65;;
48014;SDS011;33780;51.034;7.120;2023-05-10T15:11:15;6.75;;;3.13;;
48014;SDS011;33780;51.034;7.120;2023-05-10T15:13:40;6.50;;;3.17;;
48014;SDS011;33780;51.034;7.120;2023-05-10T15:16:05;7.13;;;3.03;;